sensor_id;sensor_type;location;lat;lon;timestamp;pressure;altitude;pressure_sealevel;temperature;humidity
64053;BME280;50299;49.524;8.536;2022-12-10T00:01:56;99442.31;;;-1.81;72.05
64053;BME280;50299;49.524;8.536;2022-12-10T00:04:22;99447.16;;;-1.83;67.94
64053;BME280;50299;49.524;8.536;2022-12-10T00:06:49;99443.63;;;-2.04;67.28
64053;BME280;50299;49.524;8.536;2022-12-10T00:09:17;99446.34;;;-1.73;68.88
64053;BME280;50299;49.524;8.536;2022-12-10T00:11:44;99450.97;;;-1.79;70.18
64053;BME280;50299;49.524;8.536;2022-12-10T00:14:12;99447.06;;;-1.17;78.26
64053;BME280;50299;49.524;8.536;2022-12-10T00:16:39;99444.56;;;-0.88;71.73
64053;BME280;50299;49.524;8.536;2022-12-10T00:19:05;99452.97;;;-0.84;72.25
64053;BME280;50299;49.524;8.536;2022-12-10T00:21:34;99453.66;;;-1.54;66.48
64053;BME280;50299;49.524;8.536;2022-12-10T00:24:02;99445.69;;;-0.94;76.86
64053;BME280;50299;49.524;8.536;2022-12-10T00:26:35;99447.34;;;-0.98;69.87
64053;BME280;50299;49.524;8.536;2022-12-10T00:29:03;99446.06;;;-0.56;74.82
64053;BME280;50299;49.524;8.536;2022-12-10T00:31:32;99452.34;;;-0.61;74.27
64053;BME280;50299;49.524;8.536;2022-12-10T00:34:01;99456.56;;;-0.39;70.44
64053;BME280;50299;49.524;8.536;2022-12-10T00:36:31;99446.47;;;-0.34;72.39
64053;BME280;50299;49.524;8.536;2022-12-10T00:38:58;99445.38;;;-0.28;69.34
64053;BME280;50299;49.524;8.536;2022-12-10T00:41:25;99446.03;;;0.28;81.76
64053;BME280;50299;49.524;8.536;2022-12-10T00:43:51;99448.03;;;0.17;73.50
64053;BME280;50299;49.524;8.536;2022-12-10T00:46:18;99446.00;;;0.33;74.71
64053;BME280;50299;49.524;8.536;2022-12-10T00:48:45;99446.19;;;0.12;67.17
64053;BME280;50299;49.524;8.536;2022-12-10T00:51:23;99453.19;;;-0.65;63.30
64053;BME280;50299;49.524;8.536;2022-12-10T00:53:51;99448.63;;;-0.85;71.72
64053;BME280;50299;49.524;8.536;2022-12-10T00:56:24;99450.94;;;-0.53;77.84
64053;BME280;50299;49.524;8.536;2022-12-10T00:58:51;99450.31;;;-0.99;71.96
64053;BME280;50299;49.524;8.536;2022-12-10T01:01:34;99452.47;;;-0.96;73.80
64053;BME280;50299;49.524;8.536;2022-12-10T01:04:05;99453.31;;;-1.11;72.32
64053;BME280;50299;49.524;8.536;2022-12-10T01:06:40;99450.31;;;-1.05;68.50
64053;BME280;50299;49.524;8.536;2022-12-10T01:09:08;99455.47;;;-1.13;70.42
64053;BME280;50299;49.524;8.536;2022-12-10T01:11:37;99461.38;;;-0.81;74.18
64053;BME280;50299;49.524;8.536;2022-12-10T01:14:05;99458.97;;;-0.92;76.85
64053;BME280;50299;49.524;8.536;2022-12-10T01:16:31;99451.91;;;-0.88;74.42
64053;BME280;50299;49.524;8.536;2022-12-10T01:18:58;99453.09;;;-1.50;66.99
64053;BME280;50299;49.524;8.536;2022-12-10T01:21:27;99460.19;;;-1.65;72.70
64053;BME280;50299;49.524;8.536;2022-12-10T01:23:55;99464.75;;;-1.50;72.95
64053;BME280;50299;49.524;8.536;2022-12-10T01:26:24;99465.56;;;-1.24;76.18
64053;BME280;50299;49.524;8.536;2022-12-10T01:28:52;99471.78;;;-1.03;71.88
64053;BME280;50299;49.524;8.536;2022-12-10T01:31:24;99472.91;;;-1.55;72.13
64053;BME280;50299;49.524;8.536;2022-12-10T01:33:53;99479.13;;;-1.39;72.41
64053;BME280;50299;49.524;8.536;2022-12-10T01:36:22;99481.28;;;-1.26;72.34
64053;BME280;50299;49.524;8.536;2022-12-10T01:38:49;99482.06;;;-1.05;77.83
64053;BME280;50299;49.524;8.536;2022-12-10T01:41:25;99485.44;;;-0.59;78.58
64053;BME280;50299;49.524;8.536;2022-12-10T01:44:01;99484.03;;;-0.51;75.93
64053;BME280;50299;49.524;8.536;2022-12-10T01:46:32;99485.72;;;-0.60;77.24
64053;BME280;50299;49.524;8.536;2022-12-10T01:49:02;99484.38;;;-0.58;70.92
64053;BME280;50299;49.524;8.536;2022-12-10T01:51:33;99488.59;;;-1.27;69.15
64053;BME280;50299;49.524;8.536;2022-12-10T01:54:00;99491.28;;;-2.13;70.90
64053;BME280;50299;49.524;8.536;2022-12-10T01:56:27;99485.66;;;-1.76;73.71
64053;BME280;50299;49.524;8.536;2022-12-10T01:58:55;99486.25;;;-0.63;86.46
64053;BME280;50299;49.524;8.536;2022-12-10T02:01:35;99500.81;;;0.11;89.83
64053;BME280;50299;49.524;8.536;2022-12-10T02:04:16;99503.47;;;0.55;89.59
64053;BME280;50299;49.524;8.536;2022-12-10T02:06:53;99503.69;;;0.88;87.26
64053;BME280;50299;49.524;8.536;2022-12-10T02:09:39;99499.59;;;1.14;88.13
64053;BME280;50299;49.524;8.536;2022-12-10T02:14:53;99503.47;;;1.37;79.58
64053;BME280;50299;49.524;8.536;2022-12-10T02:17:27;99501.00;;;1.36;80.29
64053;BME280;50299;49.524;8.536;2022-12-10T02:22:53;99503.47;;;0.84;67.12
64053;BME280;50299;49.524;8.536;2022-12-10T02:25:29;99503.75;;;0.54;71.92
64053;BME280;50299;49.524;8.536;2022-12-10T02:28:21;99508.72;;;0.76;83.24
64053;BME280;50299;49.524;8.536;2022-12-10T02:30:50;99505.81;;;0.33;74.47
64053;BME280;50299;49.524;8.536;2022-12-10T02:33:18;99508.50;;;0.38;70.34
64053;BME280;50299;49.524;8.536;2022-12-10T02:35:47;99501.44;;;0.37;73.67
64053;BME280;50299;49.524;8.536;2022-12-10T02:38:25;99497.63;;;-0.01;70.93
64053;BME280;50299;49.524;8.536;2022-12-10T02:40:57;99491.53;;;-0.28;67.01
64053;BME280;50299;49.524;8.536;2022-12-10T02:43:26;99495.91;;;0.13;81.92
64053;BME280;50299;49.524;8.536;2022-12-10T02:45:55;99495.50;;;-0.10;66.41
64053;BME280;50299;49.524;8.536;2022-12-10T02:48:23;99502.22;;;0.03;74.61
64053;BME280;50299;49.524;8.536;2022-12-10T02:50:50;99493.84;;;-0.55;68.36
64053;BME280;50299;49.524;8.536;2022-12-10T02:53:16;99488.72;;;-0.67;78.35
64053;BME280;50299;49.524;8.536;2022-12-10T02:56:08;99487.25;;;-1.70;67.32
64053;BME280;50299;49.524;8.536;2022-12-10T03:01:30;99494.16;;;-2.50;71.12
64053;BME280;50299;49.524;8.536;2022-12-10T03:04:15;99493.75;;;-1.86;78.77
64053;BME280;50299;49.524;8.536;2022-12-10T03:06:47;99489.41;;;-1.31;80.85
64053;BME280;50299;49.524;8.536;2022-12-10T03:09:23;99493.97;;;-0.91;78.84
64053;BME280;50299;49.524;8.536;2022-12-10T03:11:59;99494.19;;;-0.77;73.21
64053;BME280;50299;49.524;8.536;2022-12-10T03:14:30;99493.84;;;-0.50;77.79
64053;BME280;50299;49.524;8.536;2022-12-10T03:16:59;99491.34;;;-0.41;79.98
64053;BME280;50299;49.524;8.536;2022-12-10T03:19:36;99493.84;;;-0.55;76.81
64053;BME280;50299;49.524;8.536;2022-12-10T03:22:04;99491.75;;;-0.73;74.53
64053;BME280;50299;49.524;8.536;2022-12-10T03:24:32;99486.59;;;-0.80;76.19
64053;BME280;50299;49.524;8.536;2022-12-10T03:26:59;99493.78;;;-1.76;66.18
64053;BME280;50299;49.524;8.536;2022-12-10T03:29:33;99493.59;;;-2.53;69.65
64053;BME280;50299;49.524;8.536;2022-12-10T03:32:02;99488.97;;;-2.62;75.50
64053;BME280;50299;49.524;8.536;2022-12-10T03:34:28;99482.81;;;-2.47;75.28
64053;BME280;50299;49.524;8.536;2022-12-10T03:36:55;99488.59;;;-2.91;71.71
64053;BME280;50299;49.524;8.536;2022-12-10T03:39:22;99487.69;;;-2.44;76.32
64053;BME280;50299;49.524;8.536;2022-12-10T03:41:49;99480.69;;;-2.25;75.93
64053;BME280;50299;49.524;8.536;2022-12-10T03:44:30;99480.06;;;-3.58;73.06
64053;BME280;50299;49.524;8.536;2022-12-10T03:46:57;99484.22;;;-2.97;76.87
64053;BME280;50299;49.524;8.536;2022-12-10T03:49:24;99494.72;;;-3.48;73.92
64053;BME280;50299;49.524;8.536;2022-12-10T03:51:50;99493.09;;;-3.07;82.39
64053;BME280;50299;49.524;8.536;2022-12-10T03:54:17;99495.72;;;-2.65;80.19
64053;BME280;50299;49.524;8.536;2022-12-10T03:56:43;99495.38;;;-2.06;80.53
64053;BME280;50299;49.524;8.536;2022-12-10T03:59:09;99487.28;;;-1.85;78.93
64053;BME280;50299;49.524;8.536;2022-12-10T04:01:36;99493.50;;;-1.59;77.91
64053;BME280;50299;49.524;8.536;2022-12-10T04:04:03;99492.44;;;-1.68;77.95
64053;BME280;50299;49.524;8.536;2022-12-10T04:06:30;99494.56;;;-1.70;77.68
64053;BME280;50299;49.524;8.536;2022-12-10T04:08:56;99497.00;;;-2.05;70.68
64053;BME280;50299;49.524;8.536;2022-12-10T04:11:24;99498.38;;;-1.97;75.81
64053;BME280;50299;49.524;8.536;2022-12-10T04:13:51;99502.25;;;-3.13;71.11
64053;BME280;50299;49.524;8.536;2022-12-10T04:16:37;99496.59;;;-3.12;78.51
64053;BME280;50299;49.524;8.536;2022-12-10T04:19:09;99502.22;;;-2.61;77.12
64053;BME280;50299;49.524;8.536;2022-12-10T04:21:37;99498.03;;;-2.89;77.36
64053;BME280;50299;49.524;8.536;2022-12-10T04:24:24;99501.44;;;-3.14;72.37
64053;BME280;50299;49.524;8.536;2022-12-10T04:27:21;99501.78;;;-3.00;74.29
64053;BME280;50299;49.524;8.536;2022-12-10T04:29:48;99502.00;;;-3.07;76.45
64053;BME280;50299;49.524;8.536;2022-12-10T04:32:14;99508.84;;;-3.36;74.10
64053;BME280;50299;49.524;8.536;2022-12-10T04:34:41;99511.75;;;-3.06;80.28
64053;BME280;50299;49.524;8.536;2022-12-10T04:37:07;99511.91;;;-2.80;81.46
64053;BME280;50299;49.524;8.536;2022-12-10T04:39:34;99512.16;;;-2.77;79.15
64053;BME280;50299;49.524;8.536;2022-12-10T04:42:01;99508.81;;;-3.04;73.94
64053;BME280;50299;49.524;8.536;2022-12-10T04:44:27;99505.84;;;-2.97;74.29
64053;BME280;50299;49.524;8.536;2022-12-10T04:46:54;99507.72;;;-2.40;77.76
64053;BME280;50299;49.524;8.536;2022-12-10T04:49:20;99511.25;;;-2.40;74.45
64053;BME280;50299;49.524;8.536;2022-12-10T04:51:47;99515.91;;;-2.25;76.18
64053;BME280;50299;49.524;8.536;2022-12-10T04:54:14;99518.84;;;-2.32;72.81
64053;BME280;50299;49.524;8.536;2022-12-10T04:56:40;99525.25;;;-2.63;75.39
64053;BME280;50299;49.524;8.536;2022-12-10T04:59:07;99523.59;;;-3.17;75.73
64053;BME280;50299;49.524;8.536;2022-12-10T05:01:34;99515.91;;;-3.99;75.95
64053;BME280;50299;49.524;8.536;2022-12-10T05:04:03;99519.13;;;-4.24;77.32
64053;BME280;50299;49.524;8.536;2022-12-10T05:06:29;99523.41;;;-4.29;77.64
64053;BME280;50299;49.524;8.536;2022-12-10T05:08:56;99522.84;;;-4.31;79.34
64053;BME280;50299;49.524;8.536;2022-12-10T05:11:25;99528.41;;;-4.64;79.22
64053;BME280;50299;49.524;8.536;2022-12-10T05:13:52;99527.47;;;-5.14;80.31
64053;BME280;50299;49.524;8.536;2022-12-10T05:16:20;99529.25;;;-4.59;79.17
64053;BME280;50299;49.524;8.536;2022-12-10T05:18:47;99534.66;;;-4.59;80.06
64053;BME280;50299;49.524;8.536;2022-12-10T05:21:15;99534.63;;;-4.37;80.25
64053;BME280;50299;49.524;8.536;2022-12-10T05:23:45;99535.94;;;-3.63;80.98
64053;BME280;50299;49.524;8.536;2022-12-10T05:26:13;99544.38;;;-3.55;77.93
64053;BME280;50299;49.524;8.536;2022-12-10T05:28:45;99542.75;;;-3.56;79.73
64053;BME280;50299;49.524;8.536;2022-12-10T05:31:20;99551.19;;;-3.15;81.63
64053;BME280;50299;49.524;8.536;2022-12-10T05:33:47;99548.13;;;-3.61;76.37
64053;BME280;50299;49.524;8.536;2022-12-10T05:36:16;99551.69;;;-3.18;80.63
64053;BME280;50299;49.524;8.536;2022-12-10T05:38:43;99551.47;;;-3.76;74.88
64053;BME280;50299;49.524;8.536;2022-12-10T05:41:24;99559.19;;;-3.89;75.55
64053;BME280;50299;49.524;8.536;2022-12-10T05:43:52;99575.28;;;-3.45;78.05
64053;BME280;50299;49.524;8.536;2022-12-10T05:46:22;99571.84;;;-2.93;81.64
64053;BME280;50299;49.524;8.536;2022-12-10T05:48:50;99565.44;;;-2.82;74.92
64053;BME280;50299;49.524;8.536;2022-12-10T05:51:19;99574.97;;;-3.17;76.59
64053;BME280;50299;49.524;8.536;2022-12-10T05:53:46;99562.47;;;-3.23;71.67
64053;BME280;50299;49.524;8.536;2022-12-10T05:56:18;99568.16;;;-3.24;74.73
64053;BME280;50299;49.524;8.536;2022-12-10T05:58:46;99575.91;;;-2.96;74.93
64053;BME280;50299;49.524;8.536;2022-12-10T06:01:24;99573.63;;;-2.72;79.56
64053;BME280;50299;49.524;8.536;2022-12-10T06:03:51;99580.09;;;-2.15;79.14
64053;BME280;50299;49.524;8.536;2022-12-10T06:06:22;99580.16;;;-2.05;77.89
64053;BME280;50299;49.524;8.536;2022-12-10T06:08:50;99576.06;;;-2.03;74.91
64053;BME280;50299;49.524;8.536;2022-12-10T06:11:17;99584.09;;;-2.33;68.15
64053;BME280;50299;49.524;8.536;2022-12-10T06:13:44;99578.06;;;-2.56;71.61
64053;BME280;50299;49.524;8.536;2022-12-10T06:16:12;99587.66;;;-2.80;71.85
64053;BME280;50299;49.524;8.536;2022-12-10T06:18:39;99594.56;;;-2.99;72.86
64053;BME280;50299;49.524;8.536;2022-12-10T06:21:07;99592.94;;;-2.48;74.88
64053;BME280;50299;49.524;8.536;2022-12-10T06:23:35;99595.81;;;-2.17;77.11
64053;BME280;50299;49.524;8.536;2022-12-10T06:26:16;99595.66;;;-1.85;77.45
64053;BME280;50299;49.524;8.536;2022-12-10T06:28:47;99594.00;;;-2.54;72.98
64053;BME280;50299;49.524;8.536;2022-12-10T06:31:14;99600.00;;;-2.94;72.44
64053;BME280;50299;49.524;8.536;2022-12-10T06:33:41;99599.00;;;-2.31;81.98
64053;BME280;50299;49.524;8.536;2022-12-10T06:36:10;99600.84;;;-2.36;75.34
64053;BME280;50299;49.524;8.536;2022-12-10T06:38:37;99608.03;;;-1.99;73.09
64053;BME280;50299;49.524;8.536;2022-12-10T06:41:06;99609.84;;;-2.25;70.04
64053;BME280;50299;49.524;8.536;2022-12-10T06:43:33;99613.22;;;-1.98;73.72
64053;BME280;50299;49.524;8.536;2022-12-10T06:46:04;99615.69;;;-2.49;71.36
64053;BME280;50299;49.524;8.536;2022-12-10T06:48:31;99615.41;;;-2.95;69.52
64053;BME280;50299;49.524;8.536;2022-12-10T06:50:58;99621.81;;;-3.38;71.99
64053;BME280;50299;49.524;8.536;2022-12-10T06:53:24;99618.22;;;-3.17;71.47
64053;BME280;50299;49.524;8.536;2022-12-10T06:55:50;99618.75;;;-3.15;74.82
64053;BME280;50299;49.524;8.536;2022-12-10T06:58:17;99624.13;;;-3.52;70.05
64053;BME280;50299;49.524;8.536;2022-12-10T07:00:43;99618.84;;;-3.05;77.56
64053;BME280;50299;49.524;8.536;2022-12-10T07:03:11;99621.84;;;-3.01;77.96
64053;BME280;50299;49.524;8.536;2022-12-10T07:05:37;99623.66;;;-2.74;76.55
64053;BME280;50299;49.524;8.536;2022-12-10T07:08:04;99626.56;;;-2.86;76.42
64053;BME280;50299;49.524;8.536;2022-12-10T07:10:30;99627.78;;;-2.62;72.06
64053;BME280;50299;49.524;8.536;2022-12-10T07:12:59;99623.72;;;-2.64;74.69
64053;BME280;50299;49.524;8.536;2022-12-10T07:15:26;99627.50;;;-3.03;70.51
64053;BME280;50299;49.524;8.536;2022-12-10T07:17:54;99634.59;;;-3.56;71.88
64053;BME280;50299;49.524;8.536;2022-12-10T07:20:20;99639.75;;;-2.95;74.87
64053;BME280;50299;49.524;8.536;2022-12-10T07:22:47;99645.72;;;-2.56;77.73
64053;BME280;50299;49.524;8.536;2022-12-10T07:25:13;99645.94;;;-3.32;69.73
64053;BME280;50299;49.524;8.536;2022-12-10T07:27:40;99645.25;;;-3.17;75.95
64053;BME280;50299;49.524;8.536;2022-12-10T07:30:06;99648.34;;;-3.30;73.62
64053;BME280;50299;49.524;8.536;2022-12-10T07:32:33;99655.91;;;-3.59;69.97
64053;BME280;50299;49.524;8.536;2022-12-10T07:35:00;99654.59;;;-2.97;72.21
64053;BME280;50299;49.524;8.536;2022-12-10T07:37:26;99652.56;;;-3.44;69.11
64053;BME280;50299;49.524;8.536;2022-12-10T07:39:55;99659.72;;;-3.33;74.69
64053;BME280;50299;49.524;8.536;2022-12-10T07:42:21;99658.56;;;-3.05;71.89
64053;BME280;50299;49.524;8.536;2022-12-10T07:44:50;99661.69;;;-2.91;72.19
64053;BME280;50299;49.524;8.536;2022-12-10T07:47:16;99663.63;;;-2.44;72.63
64053;BME280;50299;49.524;8.536;2022-12-10T07:49:43;99665.97;;;-2.11;76.78
64053;BME280;50299;49.524;8.536;2022-12-10T07:52:09;99675.75;;;-2.52;70.68
64053;BME280;50299;49.524;8.536;2022-12-10T07:54:35;99684.09;;;-2.64;69.29
64053;BME280;50299;49.524;8.536;2022-12-10T07:57:02;99677.31;;;-2.98;76.47
64053;BME280;50299;49.524;8.536;2022-12-10T07:59:28;99677.47;;;-2.78;73.72
64053;BME280;50299;49.524;8.536;2022-12-10T08:01:54;99688.78;;;-2.44;75.86
64053;BME280;50299;49.524;8.536;2022-12-10T08:04:21;99689.22;;;-2.15;72.60
64053;BME280;50299;49.524;8.536;2022-12-10T08:06:47;99694.41;;;-2.08;71.39
64053;BME280;50299;49.524;8.536;2022-12-10T08:09:14;99687.00;;;-2.70;66.80
64053;BME280;50299;49.524;8.536;2022-12-10T08:11:40;99699.34;;;-1.95;79.36
64053;BME280;50299;49.524;8.536;2022-12-10T08:14:07;99697.69;;;-2.06;75.52
64053;BME280;50299;49.524;8.536;2022-12-10T08:16:33;99693.69;;;-1.93;75.29
64053;BME280;50299;49.524;8.536;2022-12-10T08:19:01;99701.41;;;-1.49;69.50
64053;BME280;50299;49.524;8.536;2022-12-10T08:21:30;99698.22;;;-1.31;73.55
64053;BME280;50299;49.524;8.536;2022-12-10T08:24:03;99706.56;;;-2.16;66.87
64053;BME280;50299;49.524;8.536;2022-12-10T08:26:31;99702.13;;;-1.80;67.53
64053;BME280;50299;49.524;8.536;2022-12-10T08:28:58;99708.22;;;-2.10;67.69
64053;BME280;50299;49.524;8.536;2022-12-10T08:31:26;99700.66;;;-2.08;70.71
64053;BME280;50299;49.524;8.536;2022-12-10T08:33:55;99698.84;;;-1.87;69.13
64053;BME280;50299;49.524;8.536;2022-12-10T08:36:21;99706.25;;;-1.67;68.18
64053;BME280;50299;49.524;8.536;2022-12-10T08:38:50;99701.69;;;-1.56;71.63
64053;BME280;50299;49.524;8.536;2022-12-10T08:41:20;99702.50;;;-1.45;69.17
64053;BME280;50299;49.524;8.536;2022-12-10T08:43:48;99707.06;;;-2.24;70.36
64053;BME280;50299;49.524;8.536;2022-12-10T08:46:15;99700.69;;;-2.82;65.69
64053;BME280;50299;49.524;8.536;2022-12-10T08:48:42;99702.78;;;-2.57;73.28
64053;BME280;50299;49.524;8.536;2022-12-10T08:51:15;99705.69;;;-2.27;73.23
64053;BME280;50299;49.524;8.536;2022-12-10T08:53:42;99709.56;;;-2.12;74.04
64053;BME280;50299;49.524;8.536;2022-12-10T08:56:08;99711.59;;;-1.82;70.11
64053;BME280;50299;49.524;8.536;2022-12-10T08:58:36;99712.59;;;-2.04;70.45
64053;BME280;50299;49.524;8.536;2022-12-10T09:01:11;99714.16;;;-2.13;68.34
64053;BME280;50299;49.524;8.536;2022-12-10T09:03:38;99709.59;;;-2.49;68.21
64053;BME280;50299;49.524;8.536;2022-12-10T09:06:10;99714.06;;;-1.81;69.75
64053;BME280;50299;49.524;8.536;2022-12-10T09:08:37;99712.97;;;-1.74;66.85
64053;BME280;50299;49.524;8.536;2022-12-10T09:11:12;99722.38;;;-1.97;70.64
64053;BME280;50299;49.524;8.536;2022-12-10T09:13:39;99703.03;;;-2.96;66.47
64053;BME280;50299;49.524;8.536;2022-12-10T09:16:05;99708.47;;;-2.91;68.12
64053;BME280;50299;49.524;8.536;2022-12-10T09:18:32;99714.16;;;-2.13;67.95
64053;BME280;50299;49.524;8.536;2022-12-10T09:20:59;99710.47;;;-1.96;72.69
64053;BME280;50299;49.524;8.536;2022-12-10T09:23:25;99718.53;;;-1.44;66.35
64053;BME280;50299;49.524;8.536;2022-12-10T09:25:51;99715.00;;;-1.44;68.13
64053;BME280;50299;49.524;8.536;2022-12-10T09:28:18;99717.06;;;-1.72;68.03
64053;BME280;50299;49.524;8.536;2022-12-10T09:30:44;99720.47;;;-2.02;63.71
64053;BME280;50299;49.524;8.536;2022-12-10T09:33:11;99722.03;;;-1.43;66.23
64053;BME280;50299;49.524;8.536;2022-12-10T09:35:41;99732.31;;;-1.61;67.93
64053;BME280;50299;49.524;8.536;2022-12-10T09:38:08;99722.41;;;-1.87;64.29
64053;BME280;50299;49.524;8.536;2022-12-10T09:41:01;99727.25;;;-2.42;68.00
64053;BME280;50299;49.524;8.536;2022-12-10T09:43:50;99720.16;;;-2.85;65.04
64053;BME280;50299;49.524;8.536;2022-12-10T09:46:41;99725.06;;;-2.45;65.92
64053;BME280;50299;49.524;8.536;2022-12-10T09:52:13;99724.84;;;-2.75;68.60
64053;BME280;50299;49.524;8.536;2022-12-10T09:54:58;99727.22;;;-2.47;72.88
64053;BME280;50299;49.524;8.536;2022-12-10T09:57:30;99727.91;;;-1.77;65.85
64053;BME280;50299;49.524;8.536;2022-12-10T10:00:02;99729.63;;;-2.08;63.93
64053;BME280;50299;49.524;8.536;2022-12-10T10:02:31;99725.75;;;-2.22;63.63
64053;BME280;50299;49.524;8.536;2022-12-10T10:05:17;99726.25;;;-2.68;65.31
64053;BME280;50299;49.524;8.536;2022-12-10T10:07:52;99728.28;;;-2.06;65.47
64053;BME280;50299;49.524;8.536;2022-12-10T10:12:46;99729.22;;;-0.81;70.86
64053;BME280;50299;49.524;8.536;2022-12-10T10:15:19;99723.19;;;-1.09;64.99
64053;BME280;50299;49.524;8.536;2022-12-10T10:17:48;99726.78;;;-0.72;67.71
64053;BME280;50299;49.524;8.536;2022-12-10T10:20:18;99728.44;;;-0.61;65.06
64053;BME280;50299;49.524;8.536;2022-12-10T10:22:45;99733.81;;;-0.31;65.05
64053;BME280;50299;49.524;8.536;2022-12-10T10:25:16;99735.19;;;-0.79;64.90
64053;BME280;50299;49.524;8.536;2022-12-10T10:27:43;99723.03;;;-1.70;61.13
64053;BME280;50299;49.524;8.536;2022-12-10T10:30:19;99731.94;;;-1.01;68.00
64053;BME280;50299;49.524;8.536;2022-12-10T10:32:49;99727.63;;;-0.82;61.60
64053;BME280;50299;49.524;8.536;2022-12-10T10:35:32;99730.25;;;-0.00;65.84
64053;BME280;50299;49.524;8.536;2022-12-10T10:38:03;99728.91;;;-0.18;58.03
64053;BME280;50299;49.524;8.536;2022-12-10T10:40:40;99728.03;;;0.12;59.39
64053;BME280;50299;49.524;8.536;2022-12-10T10:43:14;99735.56;;;0.85;64.43
64053;BME280;50299;49.524;8.536;2022-12-10T10:45:48;99732.31;;;0.83;54.13
64053;BME280;50299;49.524;8.536;2022-12-10T10:50:48;99736.75;;;0.04;59.57
64053;BME280;50299;49.524;8.536;2022-12-10T10:55:52;99741.97;;;-1.02;58.06
64053;BME280;50299;49.524;8.536;2022-12-10T10:58:21;99745.25;;;-0.74;66.71
64053;BME280;50299;49.524;8.536;2022-12-10T11:01:04;99742.63;;;-1.47;63.31
64053;BME280;50299;49.524;8.536;2022-12-10T11:03:34;99752.22;;;-1.09;64.92
64053;BME280;50299;49.524;8.536;2022-12-10T11:06:06;99750.41;;;-0.47;62.86
64053;BME280;50299;49.524;8.536;2022-12-10T11:08:35;99751.91;;;0.25;77.25
64053;BME280;50299;49.524;8.536;2022-12-10T11:11:04;99755.03;;;-0.73;62.91
64053;BME280;50299;49.524;8.536;2022-12-10T11:13:35;99747.13;;;-0.75;65.97
64053;BME280;50299;49.524;8.536;2022-12-10T11:16:23;99752.81;;;-0.97;63.88
64053;BME280;50299;49.524;8.536;2022-12-10T11:19:03;99752.56;;;-0.75;70.82
64053;BME280;50299;49.524;8.536;2022-12-10T11:21:32;99748.50;;;-0.98;62.95
64053;BME280;50299;49.524;8.536;2022-12-10T11:23:59;99752.56;;;-0.75;59.83
64053;BME280;50299;49.524;8.536;2022-12-10T11:29:25;99750.00;;;-1.33;62.74
64053;BME280;50299;49.524;8.536;2022-12-10T11:37:46;99755.31;;;-0.70;60.22
64053;BME280;50299;49.524;8.536;2022-12-10T11:45:43;99748.47;;;-0.26;62.09
64053;BME280;50299;49.524;8.536;2022-12-10T11:54:43;99752.69;;;-1.38;61.83
64053;BME280;50299;49.524;8.536;2022-12-10T11:57:22;99755.31;;;-1.58;63.18
64053;BME280;50299;49.524;8.536;2022-12-10T12:02:55;99756.66;;;-0.78;60.83
64053;BME280;50299;49.524;8.536;2022-12-10T12:08:44;99754.41;;;0.01;57.88
64053;BME280;50299;49.524;8.536;2022-12-10T12:11:48;99750.94;;;0.60;59.96
64053;BME280;50299;49.524;8.536;2022-12-10T12:14:22;99764.31;;;1.01;55.64
64053;BME280;50299;49.524;8.536;2022-12-10T12:17:36;99762.09;;;1.08;56.35
64053;BME280;50299;49.524;8.536;2022-12-10T12:20:20;99769.72;;;1.06;54.57
64053;BME280;50299;49.524;8.536;2022-12-10T12:22:56;99762.22;;;0.23;57.74
64053;BME280;50299;49.524;8.536;2022-12-10T12:25:51;99763.69;;;0.65;54.14
64053;BME280;50299;49.524;8.536;2022-12-10T12:28:31;99769.03;;;0.15;56.04
64053;BME280;50299;49.524;8.536;2022-12-10T12:31:05;99768.03;;;0.71;58.82
64053;BME280;50299;49.524;8.536;2022-12-10T12:33:41;99766.16;;;-0.65;65.27
64053;BME280;50299;49.524;8.536;2022-12-10T12:36:14;99772.13;;;-0.53;61.66
64053;BME280;50299;49.524;8.536;2022-12-10T12:38:49;99761.00;;;-0.41;57.77
64053;BME280;50299;49.524;8.536;2022-12-10T12:44:32;99767.25;;;0.60;70.55
64053;BME280;50299;49.524;8.536;2022-12-10T12:50:20;99776.56;;;0.49;57.24
64053;BME280;50299;49.524;8.536;2022-12-10T12:52:54;99775.81;;;0.88;58.03
64053;BME280;50299;49.524;8.536;2022-12-10T12:55:29;99777.06;;;1.06;58.57
64053;BME280;50299;49.524;8.536;2022-12-10T12:58:11;99780.34;;;1.08;58.95
64053;BME280;50299;49.524;8.536;2022-12-10T13:00:43;99781.69;;;0.56;56.49
64053;BME280;50299;49.524;8.536;2022-12-10T13:05:44;99776.84;;;0.97;68.18
64053;BME280;50299;49.524;8.536;2022-12-10T13:11:00;99772.66;;;-0.35;65.15
64053;BME280;50299;49.524;8.536;2022-12-10T13:22:09;99801.72;;;-0.15;58.43
64053;BME280;50299;49.524;8.536;2022-12-10T13:24:43;99797.84;;;-0.96;62.63
64053;BME280;50299;49.524;8.536;2022-12-10T13:27:33;99788.09;;;-0.05;62.60
64053;BME280;50299;49.524;8.536;2022-12-10T13:43:27;99816.66;;;-0.54;59.23
64053;BME280;50299;49.524;8.536;2022-12-10T13:46:31;99812.03;;;-0.28;59.61
64053;BME280;50299;49.524;8.536;2022-12-10T13:49:00;99814.75;;;-0.48;58.56
64053;BME280;50299;49.524;8.536;2022-12-10T13:51:38;99817.75;;;-0.49;63.51
64053;BME280;50299;49.524;8.536;2022-12-10T14:07:43;99849.81;;;-0.21;56.83
64053;BME280;50299;49.524;8.536;2022-12-10T14:10:15;99851.72;;;-1.25;61.58
64053;BME280;50299;49.524;8.536;2022-12-10T14:12:45;99856.13;;;-1.61;61.92
64053;BME280;50299;49.524;8.536;2022-12-10T14:15:20;99855.09;;;-1.55;61.96
64053;BME280;50299;49.524;8.536;2022-12-10T14:17:50;99855.41;;;-0.94;65.29
64053;BME280;50299;49.524;8.536;2022-12-10T14:20:20;99856.09;;;-1.19;60.47
64053;BME280;50299;49.524;8.536;2022-12-10T14:22:53;99862.06;;;-1.12;63.61
64053;BME280;50299;49.524;8.536;2022-12-10T14:25:45;99855.97;;;-0.82;66.08
64053;BME280;50299;49.524;8.536;2022-12-10T14:28:14;99856.00;;;-1.39;60.15
64053;BME280;50299;49.524;8.536;2022-12-10T14:30:47;99865.47;;;-0.84;63.16
64053;BME280;50299;49.524;8.536;2022-12-10T14:33:22;99861.63;;;-0.93;67.07
64053;BME280;50299;49.524;8.536;2022-12-10T14:35:51;99859.78;;;-0.72;66.15
64053;BME280;50299;49.524;8.536;2022-12-10T14:38:30;99864.75;;;-1.22;59.93
64053;BME280;50299;49.524;8.536;2022-12-10T14:41:02;99860.56;;;-1.45;69.61
64053;BME280;50299;49.524;8.536;2022-12-10T14:43:38;99870.41;;;-1.29;65.99
64053;BME280;50299;49.524;8.536;2022-12-10T14:46:16;99870.56;;;-1.50;60.89
64053;BME280;50299;49.524;8.536;2022-12-10T14:48:43;99877.13;;;-1.89;65.26
64053;BME280;50299;49.524;8.536;2022-12-10T14:51:14;99886.06;;;-0.93;79.55
64053;BME280;50299;49.524;8.536;2022-12-10T14:53:41;99886.56;;;-1.01;71.87
64053;BME280;50299;49.524;8.536;2022-12-10T14:56:11;99878.97;;;-1.52;62.21